createdAt,value
2018-01-13T00:00:14.785Z,95.10
2018-01-13T00:02:42.224Z,95.10
2018-01-13T00:05:12.191Z,95.10
2018-01-13T00:07:40.124Z,95.20
2018-01-13T00:10:07.578Z,95.20
2018-01-13T00:12:42.932Z,95.10
2018-01-13T00:15:10.385Z,95.10
2018-01-13T00:17:38.140Z,95.10
2018-01-13T00:20:05.744Z,95.10
2018-01-13T00:22:39.143Z,95.10
2018-01-13T00:25:07.372Z,95.10
2018-01-13T00:27:34.802Z,95.10
2018-01-13T00:30:02.264Z,95.10
2018-01-13T00:32:29.695Z,95.10
2018-01-13T00:34:58.065Z,95.10
2018-01-13T00:37:25.500Z,95.10
2018-01-13T00:39:55.536Z,95.10
2018-01-13T00:42:22.962Z,95.10
2018-01-13T00:44:50.696Z,95.00
2018-01-13T00:47:18.127Z,95.00
2018-01-13T00:49:48.329Z,95.10
2018-01-13T00:52:16.271Z,95.10
2018-01-13T00:54:43.704Z,95.30
2018-01-13T00:57:11.136Z,95.00
2018-01-13T00:59:39.360Z,95.00
2018-01-13T01:02:06.797Z,95.00
2018-01-13T01:04:34.263Z,95.00
2018-01-13T01:07:02.100Z,95.00
2018-01-13T01:09:30.297Z,95.00
2018-01-13T01:12:00.692Z,95.00
2018-01-13T01:14:28.891Z,95.10
2018-01-13T01:16:56.336Z,95.10
2018-01-13T01:19:24.472Z,95.10
2018-01-13T01:21:51.914Z,95.10
2018-01-13T01:24:19.348Z,95.10
2018-01-13T01:26:47.001Z,95.10
2018-01-13T01:29:14.440Z,95.10
2018-01-13T01:31:42.647Z,95.10
2018-01-13T01:34:10.168Z,95.10
2018-01-13T01:36:38.376Z,95.10
2018-01-13T01:39:05.840Z,95.10
2018-01-13T01:41:33.277Z,95.10
2018-01-13T01:44:00.703Z,95.10
2018-01-13T01:46:28.928Z,95.30
2018-01-13T01:48:56.358Z,95.20
2018-01-13T01:51:23.911Z,95.20
2018-01-13T01:53:52.116Z,95.20
2018-01-13T01:56:19.580Z,95.20
2018-01-13T01:58:47.020Z,95.10
2018-01-13T02:01:14.664Z,95.10
2018-01-13T02:03:42.868Z,95.50
2018-01-13T02:06:10.299Z,95.10
2018-01-13T02:08:37.935Z,95.10
2018-01-13T02:11:05.513Z,95.10
2018-01-13T02:13:33.714Z,95.10
2018-01-13T02:16:01.156Z,95.10
2018-01-13T02:18:28.618Z,95.10
2018-01-13T02:20:59.728Z,95.10
2018-01-13T02:23:28.096Z,95.10
2018-01-13T02:25:57.380Z,95.10
2018-01-13T02:28:24.820Z,95.10
2018-01-13T02:30:52.255Z,95.00
2018-01-13T02:33:19.832Z,95.00
2018-01-13T02:35:47.273Z,95.10
2018-01-13T02:38:14.710Z,95.10
2018-01-13T02:40:42.936Z,95.10
2018-01-13T02:43:10.380Z,95.10
2018-01-13T02:45:38.017Z,95.10
2018-01-13T02:48:06.218Z,95.10
2018-01-13T02:50:33.656Z,95.10
2018-01-13T02:53:01.143Z,95.10
2018-01-13T02:55:28.582Z,95.10
2018-01-13T02:57:56.012Z,95.20
2018-01-13T03:00:24.238Z,95.20
2018-01-13T03:02:51.875Z,95.20
2018-01-13T03:05:19.340Z,95.20
2018-01-13T03:07:46.776Z,95.20
2018-01-13T03:10:14.328Z,95.20
2018-01-13T03:12:42.541Z,95.10
2018-01-13T03:15:09.977Z,95.10
2018-01-13T03:17:38.695Z,95.10
2018-01-13T03:20:06.136Z,95.10
2018-01-13T03:22:33.568Z,95.20
2018-01-13T03:25:05.165Z,95.10
2018-01-13T03:27:32.604Z,95.20
2018-01-13T03:30:00.057Z,95.20
2018-01-13T03:32:27.516Z,95.20
2018-01-13T03:34:58.009Z,95.20
2018-01-13T03:37:26.239Z,95.20
2018-01-13T03:39:54.394Z,95.20
2018-01-13T03:42:21.816Z,95.20
2018-01-13T03:44:50.028Z,95.20
2018-01-13T03:47:21.337Z,95.20
2018-01-13T03:49:49.548Z,95.20
2018-01-13T03:52:16.988Z,95.20
2018-01-13T03:54:44.457Z,95.20
2018-01-13T03:57:11.887Z,95.20
2018-01-13T03:59:40.432Z,95.20
2018-01-13T04:02:07.864Z,95.20
2018-01-13T04:04:35.356Z,95.20
2018-01-13T04:07:02.968Z,95.20
2018-01-13T04:09:30.404Z,95.20
2018-01-13T04:11:59.840Z,95.20
2018-01-13T04:14:27.273Z,95.20
2018-01-13T04:16:55.500Z,95.20
2018-01-13T04:19:22.964Z,95.20
2018-01-13T04:21:50.408Z,95.20
2018-01-13T04:24:18.336Z,95.20
2018-01-13T04:26:45.772Z,95.20
2018-01-13T04:29:13.976Z,95.20
2018-01-13T04:31:41.435Z,95.10
2018-01-13T04:34:08.903Z,95.10
2018-01-13T04:36:36.344Z,95.20
2018-01-13T04:39:03.812Z,95.10
2018-01-13T04:41:31.249Z,95.10
2018-01-13T04:43:59.716Z,95.10
2018-01-13T04:46:27.932Z,95.10
2018-01-13T04:48:55.377Z,95.10
2018-01-13T04:51:22.837Z,95.00
2018-01-13T04:53:50.276Z,95.00
2018-01-13T04:56:18.501Z,95.00
2018-01-13T04:58:46.062Z,95.00
2018-01-13T05:01:13.500Z,95.00
2018-01-13T05:03:41.320Z,94.90
2018-01-13T05:06:09.540Z,94.90
2018-01-13T05:08:37.745Z,94.90
2018-01-13T05:11:05.217Z,94.90
2018-01-13T05:13:32.651Z,94.80
2018-01-13T05:16:01.572Z,94.80
2018-01-13T05:18:29.934Z,94.80
2018-01-13T05:20:57.408Z,94.70
2018-01-13T05:23:24.843Z,95.00
2018-01-13T05:25:52.281Z,94.60
2018-01-13T05:28:20.142Z,94.50
2018-01-13T05:30:47.572Z,94.50
2018-01-13T05:33:15.008Z,94.50
2018-01-13T05:35:43.324Z,94.50
2018-01-13T05:38:10.801Z,94.50
2018-01-13T05:40:38.237Z,94.50
2018-01-13T05:43:05.711Z,94.50
2018-01-13T05:45:33.152Z,94.40
2018-01-13T05:48:01.608Z,94.40
2018-01-13T05:50:29.836Z,94.30
2018-01-13T05:52:57.275Z,94.30
2018-01-13T05:55:24.864Z,94.20
2018-01-13T05:57:52.340Z,94.20
2018-01-13T06:00:19.780Z,94.20
2018-01-13T06:02:47.222Z,94.20
2018-01-13T06:05:14.964Z,94.10
2018-01-13T06:07:42.401Z,94.00
2018-01-13T06:10:10.603Z,94.00
2018-01-13T06:12:38.224Z,94.00
2018-01-13T06:15:06.436Z,93.90
2018-01-13T06:17:34.927Z,93.90
2018-01-13T06:20:02.370Z,93.90
2018-01-13T06:22:29.808Z,93.80
2018-01-13T06:24:57.272Z,93.80
2018-01-13T06:27:26.672Z,93.80
2018-01-13T06:29:54.107Z,93.80
2018-01-13T06:32:22.372Z,93.80
2018-01-13T06:34:50.141Z,93.70
2018-01-13T06:37:17.604Z,93.70
2018-01-13T06:39:45.069Z,93.90
2018-01-13T06:42:13.268Z,93.60
2018-01-13T06:44:40.728Z,93.60
2018-01-13T06:47:08.173Z,93.60
2018-01-13T06:49:35.637Z,93.60
2018-01-13T06:52:03.080Z,93.60
2018-01-13T06:54:31.620Z,93.60
2018-01-13T06:56:59.057Z,93.60
2018-01-13T06:59:26.500Z,93.50
2018-01-13T07:01:59.114Z,93.80
2018-01-13T07:04:26.553Z,93.50
2018-01-13T07:06:54.002Z,93.40
2018-01-13T07:09:21.469Z,93.40
2018-01-13T07:11:49.068Z,93.30
2018-01-13T07:14:16.514Z,93.40
2018-01-13T07:16:44.945Z,93.30
2018-01-13T07:19:13.144Z,93.20
2018-01-13T07:21:40.649Z,93.20
2018-01-13T07:24:08.869Z,93.20
2018-01-13T07:26:36.312Z,93.20
2018-01-13T07:29:03.916Z,93.10
2018-01-13T07:31:31.392Z,93.20
2018-01-13T07:33:58.832Z,93.10
2018-01-13T07:36:26.272Z,93.00
2018-01-13T07:38:53.872Z,93.00
2018-01-13T07:41:22.104Z,93.30
2018-01-13T07:43:49.622Z,93.00
2018-01-13T07:46:17.920Z,92.90
2018-01-13T07:48:45.356Z,92.90
2018-01-13T07:51:13.596Z,92.90
2018-01-13T07:53:41.466Z,92.90
2018-01-13T07:56:09.091Z,92.80
2018-01-13T07:58:36.987Z,92.80
2018-01-13T08:01:04.536Z,92.80
2018-01-13T08:03:32.823Z,92.60
2018-01-13T08:06:03.632Z,92.60
2018-01-13T08:08:31.362Z,92.60
2018-01-13T08:11:00.858Z,92.50
2018-01-13T08:13:28.813Z,92.50
2018-01-13T08:15:56.310Z,92.40
2018-01-13T08:18:24.733Z,92.40
2018-01-13T08:20:57.685Z,92.30
2018-01-13T08:23:25.972Z,92.30
2018-01-13T08:25:54.495Z,92.10
2018-01-13T08:28:21.956Z,92.10
2018-01-13T08:30:49.670Z,92.10
2018-01-13T08:33:17.561Z,92.00
2018-01-13T08:35:46.434Z,91.90
2018-01-13T08:38:18.981Z,91.90
2018-01-13T08:40:47.216Z,91.40
2018-01-13T08:43:15.184Z,91.40
2018-01-13T08:45:42.649Z,91.60
2018-01-13T08:48:10.093Z,91.50
2018-01-13T08:50:37.562Z,91.30
2018-01-13T08:53:05.025Z,91.40
2018-01-13T08:55:32.465Z,91.40
2018-01-13T08:57:59.940Z,91.30
2018-01-13T09:00:33.552Z,91.30
2018-01-13T09:03:01.146Z,91.20
2018-01-13T09:05:28.609Z,91.10
2018-01-13T09:07:56.092Z,91.10
2018-01-13T09:10:23.881Z,91.20
2018-01-13T09:12:51.316Z,91.20
2018-01-13T09:15:18.764Z,91.00
2018-01-13T09:17:46.329Z,91.00
2018-01-13T09:20:13.776Z,90.90
2018-01-13T09:22:41.199Z,90.90
2018-01-13T09:25:09.836Z,90.90
2018-01-13T09:27:37.273Z,90.90
2018-01-13T09:30:04.772Z,90.90
2018-01-13T09:32:32.236Z,90.80
2018-01-13T09:34:59.687Z,90.70
2018-01-13T09:37:27.208Z,90.70
2018-01-13T09:39:54.636Z,90.60
2018-01-13T09:42:47.109Z,90.50
2018-01-13T09:45:14.537Z,90.50
2018-01-13T09:47:42.783Z,90.30
2018-01-13T09:50:10.253Z,90.30
2018-01-13T09:52:37.693Z,90.20
2018-01-13T09:55:05.164Z,90.10
2018-01-13T09:57:32.604Z,90.00
2018-01-13T10:00:00.687Z,90.10
2018-01-13T10:02:28.125Z,89.80
2018-01-13T10:04:55.573Z,89.80
2018-01-13T10:07:23.032Z,89.70
2018-01-13T10:09:50.505Z,89.60
2018-01-13T10:12:17.944Z,89.60
2018-01-13T10:14:45.460Z,89.60
2018-01-13T10:17:13.719Z,89.20
2018-01-13T10:19:41.112Z,89.20
2018-01-13T10:22:08.729Z,88.80
2018-01-13T10:24:36.207Z,88.60
2018-01-13T10:27:03.777Z,88.50
2018-01-13T10:29:31.981Z,88.30
2018-01-13T10:32:11.461Z,88.30
2018-01-13T10:34:38.912Z,88.00
2018-01-13T10:37:06.485Z,87.60
2018-01-13T10:39:33.925Z,87.50
2018-01-13T10:42:01.380Z,88.10
2018-01-13T10:44:29.052Z,87.30
2018-01-13T10:46:56.496Z,87.30
2018-01-13T10:49:23.956Z,87.30
2018-01-13T10:51:53.005Z,86.90
2018-01-13T10:54:20.482Z,86.80
2018-01-13T10:56:47.925Z,86.80
2018-01-13T10:59:31.304Z,86.40
2018-01-13T11:01:58.878Z,86.20
2018-01-13T11:04:26.339Z,86.20
2018-01-13T11:06:53.805Z,86.20
2018-01-13T11:09:22.053Z,86.00
2018-01-13T11:11:56.454Z,86.00
2018-01-13T11:14:24.040Z,85.30
2018-01-13T11:16:51.482Z,84.30
2018-01-13T11:19:18.956Z,84.10
2018-01-13T11:21:46.420Z,83.80
2018-01-13T11:24:13.865Z,83.80
2018-01-13T11:26:41.802Z,83.60
2018-01-13T11:29:09.244Z,83.90
2018-01-13T11:31:36.680Z,83.40
2018-01-13T11:34:05.348Z,82.80
2018-01-13T11:36:32.789Z,82.80
2018-01-13T11:39:00.228Z,81.90
2018-01-13T11:41:27.708Z,82.30
2018-01-13T11:43:55.153Z,82.00
2018-01-13T11:46:22.612Z,82.10
2018-01-13T11:48:50.061Z,81.40
2018-01-13T11:51:17.923Z,81.90
2018-01-13T11:53:45.385Z,81.60
2018-01-13T11:56:12.822Z,81.10
2018-01-13T11:58:40.616Z,81.70
2018-01-13T12:01:08.052Z,80.60
2018-01-13T12:03:35.497Z,80.30
2018-01-13T12:06:03.129Z,80.30
2018-01-13T12:08:31.334Z,80.60
2018-01-13T12:10:58.802Z,80.50
2018-01-13T12:13:26.659Z,79.80
2018-01-13T12:15:54.144Z,79.90
2018-01-13T12:18:21.604Z,79.70
2018-01-13T12:20:49.060Z,79.50
2018-01-13T12:23:16.503Z,79.10
2018-01-13T12:25:43.977Z,78.70
2018-01-13T12:28:11.424Z,78.50
2018-01-13T12:30:39.192Z,78.20
2018-01-13T12:33:06.632Z,77.80
2018-01-13T12:35:34.107Z,78.00
2018-01-13T12:38:01.558Z,77.80
2018-01-13T12:40:28.984Z,77.50
2018-01-13T12:42:56.464Z,77.50
2018-01-13T12:45:23.924Z,77.80
2018-01-13T12:47:51.773Z,77.60
2018-01-13T12:50:19.478Z,77.60
2018-01-13T12:52:46.916Z,77.30
2018-01-13T12:55:14.384Z,77.10
2018-01-13T12:57:41.825Z,76.80
2018-01-13T13:00:09.401Z,76.60
2018-01-13T13:02:36.862Z,76.30
2018-01-13T13:05:05.286Z,76.20
2018-01-13T13:07:33.496Z,75.70
2018-01-13T13:10:01.158Z,75.70
2018-01-13T13:12:28.612Z,75.70
2018-01-13T13:14:56.066Z,75.90
2018-01-13T13:17:23.566Z,76.00
2018-01-13T13:19:52.188Z,76.00
2018-01-13T13:22:20.537Z,75.30
2018-01-13T13:24:47.992Z,75.30
2018-01-13T13:27:15.433Z,75.50
2018-01-13T13:29:45.020Z,75.50
2018-01-13T13:32:12.472Z,75.20
2018-01-13T13:34:39.931Z,75.10
2018-01-13T13:37:07.388Z,74.70
2018-01-13T13:39:35.813Z,74.80
2018-01-13T13:42:03.269Z,75.20
2018-01-13T13:44:30.732Z,75.30
2018-01-13T13:46:58.181Z,75.20
2018-01-13T13:49:26.718Z,75.30
2018-01-13T13:51:54.164Z,75.30
2018-01-13T13:54:21.636Z,75.20
2018-01-13T13:56:49.076Z,75.00
2018-01-13T13:59:17.269Z,74.30
2018-01-13T14:01:45.172Z,74.30
2018-01-13T14:04:13.560Z,74.30
2018-01-13T14:06:40.998Z,74.20
2018-01-13T14:09:08.501Z,74.20
2018-01-13T14:11:36.734Z,74.30
2018-01-13T14:14:04.222Z,74.30
2018-01-13T14:16:31.681Z,74.40
2018-01-13T14:18:59.126Z,74.50
2018-01-13T14:21:26.972Z,74.40
2018-01-13T14:23:54.420Z,74.30
2018-01-13T14:26:21.864Z,74.30
2018-01-13T14:28:49.465Z,74.20
2018-01-13T14:31:16.924Z,74.00
2018-01-13T14:33:48.202Z,73.90
2018-01-13T14:36:16.428Z,73.90
2018-01-13T14:38:43.873Z,73.90
2018-01-13T14:41:11.755Z,73.40
2018-01-13T14:43:39.192Z,73.90
2018-01-13T14:46:06.647Z,73.70
2018-01-13T14:48:39.358Z,73.70
2018-01-13T14:51:06.816Z,73.70
2018-01-13T14:53:34.248Z,73.60
2018-01-13T14:56:02.696Z,73.20
2018-01-13T14:58:30.897Z,73.80
2018-01-13T15:00:58.357Z,73.80
2018-01-13T15:03:25.845Z,73.70
2018-01-13T15:05:53.360Z,74.00
2018-01-13T15:08:21.792Z,74.10
2018-01-13T15:10:54.456Z,74.10
2018-01-13T15:13:21.895Z,74.10
2018-01-13T15:15:50.097Z,74.30
2018-01-13T15:18:17.568Z,74.30
2018-01-13T15:20:45.309Z,74.40
2018-01-13T15:23:12.787Z,74.40
2018-01-13T15:25:40.457Z,74.40
2018-01-13T15:28:07.905Z,74.30
2018-01-13T15:30:35.357Z,74.40
2018-01-13T15:33:03.818Z,74.40
2018-01-13T15:35:31.285Z,74.40
2018-01-13T15:37:58.875Z,74.20
2018-01-13T15:40:26.313Z,74.90
2018-01-13T15:42:53.757Z,74.50
2018-01-13T15:45:21.520Z,74.50
2018-01-13T15:47:48.957Z,74.40
2018-01-13T15:50:16.400Z,74.40
2018-01-13T15:52:44.205Z,74.40
2018-01-13T15:55:11.640Z,74.40
2018-01-13T15:57:39.086Z,74.40
2018-01-13T16:00:07.312Z,74.20
2018-01-13T16:02:34.768Z,74.20
2018-01-13T16:05:02.237Z,74.10
2018-01-13T16:07:29.676Z,74.10
2018-01-13T16:09:57.270Z,74.40
2018-01-13T16:12:25.476Z,74.30
2018-01-13T16:14:52.944Z,74.30
2018-01-13T16:17:20.385Z,74.10
2018-01-13T16:19:47.995Z,74.30
2018-01-13T16:22:15.412Z,74.10
2018-01-13T16:24:42.852Z,74.10
2018-01-13T16:27:10.459Z,74.40
2018-01-13T16:29:38.053Z,74.40
2018-01-13T16:32:06.282Z,74.30
2018-01-13T16:34:33.740Z,74.30
2018-01-13T16:37:01.197Z,74.20
2018-01-13T16:39:28.641Z,74.40
2018-01-13T16:41:56.146Z,74.50
2018-01-13T16:44:23.580Z,74.60
2018-01-13T16:46:51.826Z,75.50
2018-01-13T16:49:19.263Z,74.70
2018-01-13T16:51:47.477Z,74.70
2018-01-13T16:54:14.944Z,74.70
2018-01-13T16:56:42.381Z,74.70
2018-01-13T16:59:10.058Z,74.80
2018-01-13T17:01:37.493Z,74.80
2018-01-13T17:04:05.673Z,74.80
2018-01-13T17:06:33.156Z,74.80
2018-01-13T17:09:00.654Z,74.80
2018-01-13T17:11:28.877Z,74.80
2018-01-13T17:13:56.337Z,74.80
2018-01-13T17:16:23.776Z,74.80
2018-01-13T17:18:51.220Z,74.70
2018-01-13T17:21:18.784Z,74.70
2018-01-13T17:23:46.225Z,74.90
2018-01-13T17:26:13.691Z,74.80
2018-01-13T17:28:41.125Z,74.90
2018-01-13T17:31:11.848Z,75.00
2018-01-13T17:33:39.302Z,74.90
2018-01-13T17:36:08.017Z,75.10
2018-01-13T17:38:36.233Z,74.90
2018-01-13T17:41:03.670Z,74.90
2018-01-13T17:43:32.023Z,75.00
2018-01-13T17:46:00.269Z,75.10
2018-01-13T17:48:27.729Z,75.10
2018-01-13T17:50:55.219Z,75.00
2018-01-13T17:53:23.420Z,74.80
2018-01-13T17:55:50.872Z,74.80
2018-01-13T17:58:20.262Z,74.80
2018-01-13T18:00:48.579Z,74.80
2018-01-13T18:03:16.017Z,74.80
2018-01-13T18:05:44.714Z,74.70
2018-01-13T18:08:12.502Z,74.70
2018-01-13T18:10:39.966Z,74.50
2018-01-13T18:13:07.404Z,75.10
2018-01-13T18:15:34.874Z,74.50
2018-01-13T18:18:02.311Z,74.40
2018-01-13T18:20:29.956Z,74.60
2018-01-13T18:22:57.416Z,74.60
2018-01-13T18:25:24.856Z,74.60
2018-01-13T18:27:53.321Z,74.70
2018-01-13T18:30:21.548Z,74.80
2018-01-13T18:32:49.008Z,74.70
2018-01-13T18:35:16.846Z,74.80
2018-01-13T18:37:44.284Z,74.80
2018-01-13T18:40:13.445Z,74.90
2018-01-13T18:42:41.118Z,74.90
2018-01-13T18:45:08.688Z,74.80
2018-01-13T18:47:36.893Z,75.00
2018-01-13T18:50:04.331Z,74.90
2018-01-13T18:52:32.555Z,74.90
2018-01-13T18:55:00.976Z,74.90
2018-01-13T18:57:29.201Z,75.20
2018-01-13T18:59:58.925Z,75.10
2018-01-13T19:02:26.363Z,75.00
2018-01-13T19:04:53.827Z,75.10
2018-01-13T19:07:21.261Z,75.30
2018-01-13T19:09:53.516Z,75.20
2018-01-13T19:12:21.721Z,75.40
2018-01-13T19:14:49.188Z,75.30
2018-01-13T19:17:16.624Z,75.10
2018-01-13T19:19:44.533Z,75.10
2018-01-13T19:22:11.972Z,75.10
2018-01-13T19:24:39.413Z,75.00
2018-01-13T19:27:08.637Z,75.00
2018-01-13T19:29:36.076Z,74.90
2018-01-13T19:32:03.536Z,74.90
2018-01-13T19:34:31.142Z,74.90
2018-01-13T19:36:58.574Z,75.00
2018-01-13T19:39:26.545Z,75.00
2018-01-13T19:41:53.984Z,75.10
2018-01-13T19:44:21.438Z,75.10
2018-01-13T19:46:52.845Z,75.00
2018-01-13T19:49:21.173Z,74.90
2018-01-13T19:51:49.086Z,74.90
2018-01-13T19:54:16.538Z,74.90
2018-01-13T19:56:44.111Z,75.10
2018-01-13T19:59:11.588Z,75.00
2018-01-13T20:01:39.079Z,75.10
2018-01-13T20:04:06.537Z,75.00
2018-01-13T20:06:33.985Z,75.20
2018-01-13T20:09:01.548Z,75.20
2018-01-13T20:11:28.980Z,75.20
2018-01-13T20:13:56.451Z,75.10
2018-01-13T20:16:23.884Z,75.10
2018-01-13T20:18:51.444Z,75.10
2018-01-13T20:21:18.889Z,75.10
2018-01-13T20:23:47.096Z,75.10
2018-01-13T20:26:14.974Z,75.00
2018-01-13T20:28:42.559Z,75.00
2018-01-13T20:31:10.003Z,74.90
2018-01-13T20:33:37.461Z,74.90
2018-01-13T20:36:04.904Z,74.90
2018-01-13T20:38:35.107Z,74.90
2018-01-13T20:41:02.560Z,74.80
2018-01-13T20:43:30.860Z,74.90
2018-01-13T20:45:58.305Z,75.00
2018-01-13T20:48:25.766Z,75.00
2018-01-13T20:50:53.214Z,75.10
2018-01-13T20:53:20.672Z,75.20
2018-01-13T20:55:48.117Z,75.20
2018-01-13T20:58:16.032Z,75.10
2018-01-13T21:00:43.640Z,75.20
2018-01-13T21:03:11.843Z,75.10
2018-01-13T21:05:39.480Z,75.00
2018-01-13T21:08:07.730Z,75.20
2018-01-13T21:10:35.176Z,75.10
2018-01-13T21:13:02.623Z,75.10
2018-01-13T21:15:30.084Z,75.00
2018-01-13T21:17:57.526Z,74.90
2018-01-13T21:20:30.523Z,74.80
2018-01-13T21:22:57.966Z,74.80
2018-01-13T21:25:25.399Z,74.70
2018-01-13T21:27:53.284Z,74.70
2018-01-13T21:30:20.725Z,74.80
2018-01-13T21:32:48.158Z,74.90
2018-01-13T21:35:16.385Z,75.00
2018-01-13T21:37:44.604Z,75.00
2018-01-13T21:40:12.809Z,75.80
2018-01-13T21:42:40.708Z,74.90
2018-01-13T21:45:08.153Z,75.00
2018-01-13T21:47:35.600Z,75.00
2018-01-13T21:50:03.064Z,74.80
2018-01-13T21:52:30.544Z,74.90
2018-01-13T21:54:57.985Z,74.90
2018-01-13T21:57:25.437Z,74.90
2018-01-13T21:59:53.236Z,75.00
2018-01-13T22:02:20.671Z,75.00
2018-01-13T22:04:48.117Z,74.80
2018-01-13T22:07:15.576Z,74.80
2018-01-13T22:09:43.009Z,75.50
2018-01-13T22:12:10.473Z,74.70
2018-01-13T22:14:37.904Z,74.80
2018-01-13T22:17:06.105Z,74.80
2018-01-13T22:19:36.161Z,74.80
2018-01-13T22:22:03.602Z,74.80
2018-01-13T22:24:31.038Z,74.80
2018-01-13T22:26:58.945Z,74.90
2018-01-13T22:29:26.388Z,74.90
2018-01-13T22:31:53.821Z,75.00
2018-01-13T22:34:21.280Z,74.90
2018-01-13T22:36:48.984Z,75.00
2018-01-13T22:39:16.425Z,74.80
2018-01-13T22:41:45.219Z,74.90
2018-01-13T22:44:12.654Z,74.90
2018-01-13T22:46:40.090Z,74.90
2018-01-13T22:49:08.312Z,75.20
2018-01-13T22:51:35.783Z,75.10
2018-01-13T22:54:03.219Z,75.10
2018-01-13T22:56:30.658Z,75.10
2018-01-13T22:58:58.176Z,75.00
2018-01-13T23:01:25.845Z,75.20
2018-01-13T23:03:54.072Z,75.30
2018-01-13T23:06:21.513Z,75.30
2018-01-13T23:08:48.980Z,75.20
2018-01-13T23:11:17.180Z,75.30
2018-01-13T23:13:44.612Z,75.30
2018-01-13T23:16:13.570Z,75.30
2018-01-13T23:18:41.782Z,75.20
2018-01-13T23:21:09.233Z,75.20
2018-01-13T23:23:36.740Z,75.30
2018-01-13T23:26:04.501Z,75.40
2018-01-13T23:28:31.936Z,75.50
2018-01-13T23:30:59.420Z,75.60
2018-01-13T23:33:27.026Z,75.70
2018-01-13T23:35:54.468Z,75.80
2018-01-13T23:38:21.927Z,75.90
2018-01-13T23:40:49.364Z,76.00
2018-01-13T23:43:17.567Z,76.20
2018-01-13T23:45:45.028Z,76.10
2018-01-13T23:48:12.460Z,76.20
2018-01-13T23:50:40.786Z,76.30
2018-01-13T23:53:08.216Z,76.30
2018-01-13T23:55:35.681Z,76.20
2018-01-13T23:58:03.112Z,76.30
